createdAt,value
2022-10-05T00:02:56.315Z,92.97
2022-10-05T00:06:33.742Z,92.97
2022-10-05T00:10:16.808Z,92.58
2022-10-05T00:13:53.034Z,92.58
2022-10-05T00:17:32.549Z,91.76
2022-10-05T00:21:20.154Z,91.69
2022-10-05T00:24:58.893Z,91.77
2022-10-05T00:28:34.265Z,91.58
2022-10-05T00:32:11.115Z,91.80
2022-10-05T00:35:47.714Z,91.59
2022-10-05T00:39:24.489Z,92.01
2022-10-05T00:43:49.472Z,91.85
2022-10-05T00:47:31.703Z,91.93
2022-10-05T00:51:27.032Z,91.77
2022-10-05T00:55:36.806Z,91.95
2022-10-05T00:59:59.440Z,91.60
2022-10-05T01:03:40.533Z,91.83
2022-10-05T01:07:29.746Z,92.06
2022-10-05T01:11:14.868Z,92.13
2022-10-05T01:14:56.432Z,91.95
2022-10-05T01:19:10.245Z,91.90
2022-10-05T01:22:52.696Z,91.42
2022-10-05T01:26:49.624Z,91.26
2022-10-05T01:30:25.151Z,91.04
2022-10-05T01:34:30.741Z,90.96
2022-10-05T01:38:20.799Z,90.71
2022-10-05T01:42:02.770Z,90.83
2022-10-05T01:46:04.237Z,90.60
2022-10-05T01:49:58.269Z,90.71
2022-10-05T01:53:50.185Z,90.78
2022-10-05T01:57:31.351Z,91.17
2022-10-05T02:01:30.988Z,91.25
2022-10-05T02:05:12.834Z,91.08
2022-10-05T02:08:54.934Z,91.16
2022-10-05T02:12:37.423Z,91.24
2022-10-05T02:16:26.249Z,91.31
2022-10-05T02:20:07.972Z,91.63
2022-10-05T02:23:46.225Z,92.06
2022-10-05T02:27:38.958Z,92.38
2022-10-05T02:31:38.583Z,93.01
2022-10-05T02:35:17.159Z,93.64
2022-10-05T02:38:52.313Z,94.51
2022-10-05T02:42:39.414Z,95.24
2022-10-05T02:46:17.623Z,95.42
2022-10-05T02:50:12.589Z,95.85
2022-10-05T02:53:48.847Z,95.91
2022-10-05T02:57:45.283Z,96.31
2022-10-05T03:01:42.735Z,96.17
2022-10-05T03:05:20.837Z,96.62
2022-10-05T03:09:10.137Z,96.68
2022-10-05T03:12:58.396Z,96.65
2022-10-05T03:16:43.956Z,96.83
2022-10-05T03:20:28.542Z,97.10
2022-10-05T03:24:23.072Z,96.97
2022-10-05T03:28:05.724Z,97.01
2022-10-05T03:31:51.653Z,97.00
2022-10-05T03:35:51.859Z,97.36
2022-10-05T03:39:22.853Z,97.42
2022-10-05T03:43:24.115Z,97.55
2022-10-05T03:47:09.156Z,97.75
2022-10-05T03:51:06.272Z,98.01
2022-10-05T03:54:54.903Z,98.24
2022-10-05T03:58:56.445Z,98.65
2022-10-05T04:02:51.165Z,99.04
2022-10-05T04:06:36.363Z,99.43
2022-10-05T04:10:48.388Z,99.52
2022-10-05T04:14:46.598Z,99.38
2022-10-05T04:18:23.537Z,99.23
2022-10-05T04:22:22.871Z,99.31
2022-10-05T04:25:46.893Z,99.42
2022-10-05T04:29:22.158Z,99.72
2022-10-05T04:33:00.908Z,99.87
2022-10-05T04:36:49.750Z,99.95
2022-10-05T04:40:48.702Z,100.00
2022-10-05T04:44:44.175Z,100.00
2022-10-05T04:49:08.543Z,100.00
2022-10-05T04:52:51.538Z,100.00
2022-10-05T04:57:19.932Z,100.00
2022-10-05T05:01:37.970Z,100.00
2022-10-05T05:06:16.282Z,100.00
2022-10-05T05:10:34.638Z,100.00
2022-10-05T05:14:49.508Z,100.00
2022-10-05T05:18:58.533Z,100.00
2022-10-05T05:23:17.991Z,100.00
2022-10-05T05:27:33.205Z,100.00
2022-10-05T05:32:03.334Z,100.00
2022-10-05T05:36:31.825Z,100.00
2022-10-05T05:40:34.003Z,100.00
2022-10-05T05:44:55.743Z,100.00
2022-10-05T05:48:56.449Z,99.96
2022-10-05T05:53:12.914Z,99.78
2022-10-05T05:57:35.053Z,99.70
2022-10-05T06:01:42.025Z,99.44
2022-10-05T06:05:26.963Z,99.43
2022-10-05T06:09:18.305Z,98.97
2022-10-05T06:13:00.903Z,98.20
2022-10-05T06:16:46.775Z,97.90
2022-10-05T06:20:36.288Z,97.07
2022-10-05T06:24:23.483Z,96.29
2022-10-05T06:28:04.989Z,96.39
2022-10-05T06:32:14.789Z,96.26
2022-10-05T06:35:37.932Z,95.81
2022-10-05T06:39:22.518Z,95.28
2022-10-05T06:43:15.468Z,94.74
2022-10-05T06:46:56.935Z,93.94
2022-10-05T06:50:46.219Z,93.08
2022-10-05T06:54:27.609Z,92.15
2022-10-05T06:58:13.844Z,91.56
2022-10-05T07:01:58.832Z,90.69
2022-10-05T07:06:03.860Z,89.74
2022-10-05T07:10:09.480Z,89.22
2022-10-05T07:13:57.357Z,87.90
2022-10-05T07:17:52.797Z,87.73
2022-10-05T07:21:54.412Z,86.85
2022-10-05T07:25:41.160Z,85.66
2022-10-05T07:29:38.088Z,86.16
2022-10-05T07:33:23.345Z,85.17
2022-10-05T07:37:32.059Z,83.61
2022-10-05T07:41:15.713Z,81.90
2022-10-05T07:45:02.447Z,80.78
2022-10-05T07:48:55.809Z,80.81
2022-10-05T07:52:35.119Z,78.85
2022-10-05T07:56:41.135Z,79.45
2022-10-05T08:00:26.336Z,79.00
2022-10-05T08:04:10.026Z,78.05
2022-10-05T08:07:48.348Z,78.59
2022-10-05T08:11:33.897Z,77.22
2022-10-05T08:15:17.152Z,75.04
2022-10-05T08:19:19.022Z,72.38
2022-10-05T08:23:22.300Z,71.79
2022-10-05T08:27:11.088Z,72.20
2022-10-05T08:31:03.528Z,68.33
2022-10-05T08:34:49.879Z,65.08
2022-10-05T08:38:33.729Z,66.82
2022-10-05T08:42:56.169Z,68.02
2022-10-05T08:46:54.653Z,69.00
2022-10-05T08:50:50.224Z,68.77
2022-10-05T08:54:38.614Z,68.59
2022-10-05T08:58:40.291Z,68.56
2022-10-05T09:02:51.905Z,68.13
2022-10-05T09:07:04.063Z,67.81
2022-10-05T09:10:43.539Z,67.27
2022-10-05T09:14:27.331Z,66.50
2022-10-05T09:18:33.527Z,66.63
2022-10-05T09:22:38.481Z,68.27
2022-10-05T09:26:42.713Z,68.18
2022-10-05T09:30:57.180Z,67.78
2022-10-05T09:34:51.232Z,66.33
2022-10-05T09:38:36.618Z,66.30
2022-10-05T09:42:23.461Z,65.69
2022-10-05T09:46:07.745Z,65.57
2022-10-05T09:49:49.005Z,65.13
2022-10-05T09:53:57.243Z,63.82
2022-10-05T09:57:35.308Z,62.58
2022-10-05T10:01:41.229Z,61.39
2022-10-05T10:05:47.835Z,58.31
2022-10-05T10:10:01.308Z,59.46
2022-10-05T10:14:01.170Z,57.60
2022-10-05T10:18:02.260Z,53.92
2022-10-05T10:22:06.818Z,56.00
2022-10-05T10:26:02.391Z,54.67
2022-10-05T10:30:03.769Z,50.68
2022-10-05T10:34:17.914Z,48.97
2022-10-05T10:37:53.150Z,49.26
2022-10-05T10:42:02.080Z,52.09
2022-10-05T10:45:48.764Z,54.07
2022-10-05T10:49:56.018Z,54.64
2022-10-05T10:53:52.995Z,54.11
2022-10-05T10:58:03.698Z,53.03
2022-10-05T11:01:48.454Z,50.95
2022-10-05T11:05:38.909Z,52.55
2022-10-05T11:09:17.015Z,54.32
2022-10-05T11:12:55.193Z,55.96
2022-10-05T11:17:06.910Z,55.80
2022-10-05T11:20:49.393Z,55.20
2022-10-05T11:24:34.513Z,55.01
2022-10-05T11:28:33.138Z,55.32
2022-10-05T11:32:48.700Z,55.62
2022-10-05T11:36:51.918Z,54.93
2022-10-05T11:40:47.812Z,54.67
2022-10-05T11:44:43.254Z,52.50
2022-10-05T11:48:48.204Z,48.94
2022-10-05T11:52:48.086Z,47.84
2022-10-05T11:56:42.431Z,47.97
2022-10-05T12:00:22.934Z,49.90
2022-10-05T12:04:26.413Z,51.99
2022-10-05T12:08:07.508Z,53.19
2022-10-05T12:12:11.017Z,52.45
2022-10-05T12:15:48.524Z,51.68
2022-10-05T12:19:42.362Z,52.05
2022-10-05T12:23:27.651Z,51.74
2022-10-05T12:27:23.275Z,53.38
2022-10-05T12:31:21.557Z,53.13
2022-10-05T12:35:06.290Z,53.27
2022-10-05T12:39:08.586Z,53.37
2022-10-05T12:43:05.026Z,54.11
2022-10-05T12:46:53.574Z,54.36
2022-10-05T12:50:40.438Z,54.95
2022-10-05T12:54:42.647Z,54.26
2022-10-05T12:58:20.805Z,55.86
2022-10-05T13:02:11.244Z,55.98
2022-10-05T13:05:52.520Z,56.37
2022-10-05T13:09:44.857Z,56.39
2022-10-05T13:13:34.088Z,56.47
2022-10-05T13:17:22.413Z,56.40
2022-10-05T13:21:26.750Z,56.20
2022-10-05T13:25:23.253Z,56.64
2022-10-05T13:29:18.886Z,55.67
2022-10-05T13:33:24.493Z,55.55
2022-10-05T13:37:24.751Z,57.73
2022-10-05T13:41:36.502Z,58.15
2022-10-05T13:45:24.767Z,57.86
2022-10-05T13:49:12.485Z,58.27
2022-10-05T13:53:24.113Z,58.90
2022-10-05T13:57:26.008Z,60.07
2022-10-05T14:01:09.085Z,60.38
2022-10-05T14:05:00.132Z,60.38
2022-10-05T14:08:48.636Z,60.99
2022-10-05T14:12:24.266Z,61.78
2022-10-05T14:16:18.558Z,62.83
2022-10-05T14:20:00.233Z,63.13
2022-10-05T14:23:36.292Z,63.23
2022-10-05T14:27:31.231Z,63.53
2022-10-05T14:31:27.575Z,63.75
2022-10-05T14:35:18.232Z,63.96
2022-10-05T14:39:02.309Z,64.94
2022-10-05T14:42:47.157Z,65.02
2022-10-05T14:46:27.937Z,65.66
2022-10-05T14:50:26.404Z,65.68
2022-10-05T14:54:15.411Z,66.38
2022-10-05T14:57:50.718Z,67.09
2022-10-05T15:01:35.466Z,67.67
2022-10-05T15:05:26.917Z,68.03
2022-10-05T15:09:39.897Z,68.26
2022-10-05T15:13:41.748Z,69.01
2022-10-05T15:17:26.445Z,69.65
2022-10-05T15:21:24.081Z,70.27
2022-10-05T15:25:08.342Z,70.69
2022-10-05T15:28:51.891Z,71.22
2022-10-05T15:32:42.985Z,72.27
2022-10-05T15:36:35.673Z,72.63
2022-10-05T15:40:37.003Z,73.10
2022-10-05T15:44:40.248Z,73.98
2022-10-05T15:48:29.730Z,74.42
2022-10-05T15:52:17.962Z,74.62
2022-10-05T15:56:04.318Z,74.80
2022-10-05T16:00:01.568Z,75.05
2022-10-05T16:03:58.265Z,75.56
2022-10-05T16:08:06.587Z,76.33
2022-10-05T16:11:52.063Z,76.87
2022-10-05T16:15:42.214Z,77.19
2022-10-05T16:19:46.595Z,77.28
2022-10-05T16:23:48.647Z,77.54
2022-10-05T16:28:05.285Z,78.16
2022-10-05T16:31:58.151Z,78.87
2022-10-05T16:35:44.704Z,78.80
2022-10-05T16:40:00.218Z,79.15
2022-10-05T16:42:35.148Z,79.44
2022-10-05T16:45:22.354Z,79.47
2022-10-05T16:48:29.025Z,79.47
2022-10-05T16:51:15.356Z,79.79
2022-10-05T16:54:02.112Z,79.74
2022-10-05T16:57:44.828Z,80.48
2022-10-05T17:01:42.786Z,80.53
2022-10-05T17:05:42.511Z,80.86
2022-10-05T17:09:37.804Z,80.79
2022-10-05T17:13:30.195Z,80.95
2022-10-05T17:17:33.528Z,81.28
2022-10-05T17:21:35.017Z,81.91
2022-10-05T17:25:49.576Z,82.10
2022-10-05T17:29:42.945Z,82.73
2022-10-05T17:33:22.053Z,82.68
2022-10-05T17:37:15.719Z,82.93
2022-10-05T17:41:00.227Z,83.55
2022-10-05T17:44:36.219Z,83.71
2022-10-05T17:48:41.455Z,84.82
2022-10-05T17:52:46.613Z,85.31
2022-10-05T17:56:24.034Z,85.18
2022-10-05T18:00:03.100Z,86.01
2022-10-05T18:04:04.349Z,85.74
2022-10-05T18:07:49.693Z,85.65
2022-10-05T18:11:30.942Z,85.63
2022-10-05T18:15:07.230Z,85.29
2022-10-05T18:18:43.054Z,84.47
2022-10-05T18:22:30.552Z,83.79
2022-10-05T18:26:30.280Z,83.08
2022-10-05T18:30:20.604Z,82.93
2022-10-05T18:34:14.509Z,82.95
2022-10-05T18:37:52.644Z,82.18
2022-10-05T18:42:12.576Z,81.54
2022-10-05T18:46:08.399Z,80.81
2022-10-05T18:50:05.733Z,80.38
2022-10-05T18:53:57.543Z,80.28
2022-10-05T18:57:55.404Z,79.76
2022-10-05T19:02:03.481Z,79.43
2022-10-05T19:05:49.468Z,79.09
2022-10-05T19:10:03.321Z,78.97
2022-10-05T19:13:56.153Z,78.71
2022-10-05T19:17:54.754Z,78.83
2022-10-05T19:21:54.013Z,78.36
2022-10-05T19:26:06.223Z,77.94
2022-10-05T19:29:47.532Z,77.33
2022-10-05T19:33:42.429Z,77.30
2022-10-05T19:37:37.078Z,77.83
2022-10-05T19:41:32.086Z,78.07
2022-10-05T19:45:26.155Z,78.35
2022-10-05T19:49:01.488Z,78.89
2022-10-05T19:52:46.251Z,79.44
2022-10-05T19:56:31.365Z,79.95
2022-10-05T20:00:07.954Z,80.82
2022-10-05T20:03:47.878Z,81.54
2022-10-05T20:07:23.865Z,82.29
2022-10-05T20:11:04.291Z,83.35
2022-10-05T20:14:59.858Z,83.65
2022-10-05T20:18:56.630Z,84.25
2022-10-05T20:22:46.751Z,85.00
2022-10-05T20:27:05.470Z,85.93
2022-10-05T20:30:42.079Z,87.56
2022-10-05T20:34:18.672Z,88.39
2022-10-05T20:37:59.661Z,88.50
2022-10-05T20:41:36.352Z,88.95
2022-10-05T20:45:13.041Z,89.04
2022-10-05T20:48:48.591Z,89.11
2022-10-05T20:52:25.353Z,89.67
2022-10-05T20:56:04.771Z,90.15
2022-10-05T20:59:40.406Z,90.30
2022-10-05T21:03:19.073Z,90.77
2022-10-05T21:06:54.614Z,91.15
2022-10-05T21:10:31.233Z,91.41
2022-10-05T21:14:10.416Z,91.36
2022-10-05T21:17:45.783Z,91.53
2022-10-05T21:21:27.473Z,91.95
2022-10-05T21:25:02.814Z,92.33
2022-10-05T21:28:40.323Z,92.74
2022-10-05T21:32:16.378Z,92.76
2022-10-05T21:36:14.304Z,93.03
2022-10-05T21:39:35.344Z,93.22
2022-10-05T21:43:10.716Z,93.26
2022-10-05T21:46:48.548Z,93.96
2022-10-05T21:50:26.052Z,94.65
2022-10-05T21:54:08.504Z,95.12
2022-10-05T21:57:46.712Z,95.58
2022-10-05T22:01:23.090Z,95.51
2022-10-05T22:04:59.024Z,96.15
2022-10-05T22:08:35.737Z,96.02
2022-10-05T22:12:13.533Z,96.43
2022-10-05T22:15:49.432Z,96.92
2022-10-05T22:19:26.355Z,97.66
2022-10-05T22:23:04.655Z,97.98
2022-10-05T22:26:42.470Z,98.39
2022-10-05T22:30:18.683Z,98.72
2022-10-05T22:33:54.725Z,99.21
2022-10-05T22:37:34.228Z,99.80
2022-10-05T22:41:11.374Z,99.95
2022-10-05T22:44:47.021Z,100.00
2022-10-05T22:48:23.564Z,100.00
2022-10-05T22:52:01.351Z,100.00
2022-10-05T22:55:38.254Z,100.00
2022-10-05T22:59:14.033Z,100.00
2022-10-05T23:02:50.794Z,100.00
2022-10-05T23:06:28.654Z,100.00
2022-10-05T23:10:07.464Z,100.00
2022-10-05T23:13:43.058Z,100.00
2022-10-05T23:17:22.283Z,100.00
2022-10-05T23:20:57.537Z,100.00
2022-10-05T23:24:35.913Z,100.00
2022-10-05T23:28:11.141Z,100.00
2022-10-05T23:31:47.939Z,100.00
2022-10-05T23:35:24.803Z,100.00
2022-10-05T23:39:01.802Z,100.00
2022-10-05T23:42:40.082Z,100.00
2022-10-05T23:46:16.471Z,100.00
2022-10-05T23:49:52.216Z,100.00
2022-10-05T23:53:28.964Z,100.00
2022-10-05T23:57:05.789Z,100.00
